Time;durP1;ratioP1;P1;durP2;ratioP2;P2;SDS_P1;SDS_P2;PMS_P1;PMS_P2;Temp;Humidity;BMP_temperature;BMP_pressure;BME280_temperature;BME280_humidity;BME280_pressure;Samples;Min_cycle;Max_cycle;Signal;HPM_P1;HPM_P2
2021/07/27 00:01:31;;;;;;;0.40;0.20;;;20.00;99.90;;;;;;4936027;29;20337;-68
2021/07/27 00:03:57;;;;;;;0.40;0.20;;;20.10;99.90;;;;;;4936135;29;20440;-67
2021/07/27 00:06:22;;;;;;;0.40;0.20;;;20.10;99.90;;;;;;4935899;29;20541;-67
2021/07/27 00:08:48;;;;;;;0.40;0.20;;;20.20;99.90;;;;;;4939630;29;20204;-67
2021/07/27 00:11:13;;;;;;;0.50;0.30;;;20.20;99.90;;;;;;4939805;29;20177;-67
2021/07/27 00:13:39;;;;;;;0.40;0.20;;;20.20;99.90;;;;;;4939807;29;20630;-66
2021/07/27 00:16:05;;;;;;;0.40;0.20;;;20.10;99.90;;;;;;4939911;29;20274;-67
2021/07/27 00:18:32;;;;;;;0.40;0.20;;;20.10;99.90;;;;;;4939606;29;20432;-63
2021/07/27 00:20:59;;;;;;;0.40;0.20;;;20.10;99.90;;;;;;4939544;29;20432;-67
2021/07/27 00:23:25;;;;;;;0.40;0.20;;;20.20;99.90;;;;;;4939778;29;20511;-64
2021/07/27 00:25:53;;;;;;;0.40;0.20;;;20.10;99.90;;;;;;4939517;29;20456;-66
2021/07/27 00:28:19;;;;;;;0.40;0.20;;;20.10;99.90;;;;;;4939362;29;20291;-67
2021/07/27 00:30:45;;;;;;;0.40;0.20;;;20.10;99.90;;;;;;4939378;29;20535;-64
2021/07/27 00:33:11;;;;;;;0.40;0.20;;;19.90;99.90;;;;;;4939589;29;20188;-64
2021/07/27 00:35:37;;;;;;;0.40;0.20;;;19.60;99.90;;;;;;4939281;29;20432;-68
2021/07/27 00:38:08;;;;;;;0.40;0.20;;;19.60;99.90;;;;;;4939350;29;20247;-67
2021/07/27 00:40:43;;;;;;;0.40;0.20;;;19.60;99.90;;;;;;4939275;29;20185;-66
2021/07/27 00:43:11;;;;;;;0.40;0.20;;;19.80;99.90;;;;;;4939252;29;20492;-64
2021/07/27 00:45:37;;;;;;;0.40;0.20;;;19.80;99.90;;;;;;4939214;29;20432;-64
2021/07/27 00:48:03;;;;;;;0.40;0.20;;;19.70;99.90;;;;;;4938958;29;20471;-66
2021/07/27 00:50:29;;;;;;;0.40;0.20;;;20.00;99.90;;;;;;4939066;29;20177;-68
2021/07/27 00:53:00;;;;;;;0.40;0.20;;;20.00;99.90;;;;;;4939162;29;20856;-68
2021/07/27 00:55:26;;;;;;;0.40;0.20;;;20.00;99.90;;;;;;4939129;29;20421;-64
2021/07/27 00:57:52;;;;;;;0.40;0.20;;;20.10;99.90;;;;;;4938880;29;20456;-64
2021/07/27 01:00:19;;;;;;;0.40;0.20;;;20.00;99.90;;;;;;4938631;29;20500;-64
2021/07/27 01:02:45;;;;;;;0.40;0.20;;;19.90;99.90;;;;;;4938800;29;20185;-66
2021/07/27 01:05:12;;;;;;;0.40;0.20;;;19.80;99.90;;;;;;4938756;29;20780;-64
2021/07/27 01:07:38;;;;;;;0.40;0.20;;;19.80;99.90;;;;;;4938565;29;20446;-63
2021/07/27 01:10:08;;;;;;;0.40;0.20;;;19.80;99.90;;;;;;4938601;29;20436;-67
2021/07/27 01:12:34;;;;;;;0.40;0.20;;;19.70;99.90;;;;;;4938653;29;20735;-64
2021/07/27 01:15:00;;;;;;;0.40;0.20;;;19.80;99.90;;;;;;4938610;29;20424;-66
2021/07/27 01:17:26;;;;;;;0.40;0.20;;;19.60;99.90;;;;;;4921585;29;20849;-66
2021/07/27 01:39:21;;;;;;;0.40;0.20;;;19.80;99.90;;;;;;4938283;29;20469;-67
2021/07/27 01:42:07;;;;;;;0.40;0.20;;;19.90;99.90;;;;;;4938271;29;20917;-65
2021/07/27 01:44:44;;;;;;;0.40;0.20;;;19.80;99.90;;;;;;4938240;29;20424;-67
2021/07/27 01:47:27;;;;;;;0.40;0.20;;;19.90;99.90;;;;;;4937959;29;20804;-67
2021/07/27 01:49:53;;;;;;;0.60;0.60;;;20.00;99.90;;;;;;4938142;29;20417;-63
2021/07/27 01:52:23;;;;;;;0.40;0.20;;;20.00;99.90;;;;;;4938094;29;20432;-69
2021/07/27 01:54:54;;;;;;;0.40;0.20;;;19.90;99.90;;;;;;4938391;29;20572;-64
2021/07/27 01:57:21;;;;;;;0.40;0.20;;;19.80;99.90;;;;;;4938275;29;20436;-66
2021/07/27 02:00:01;;;;;;;0.40;0.10;;;19.70;99.90;;;;;;4937754;29;20511;-67
2021/07/27 02:02:27;;;;;;;0.40;0.20;;;19.70;99.90;;;;;;4921173;29;20495;-65
2021/07/27 02:04:52;;;;;;;2.60;1.00;;;19.70;99.90;;;;;;4937712;29;20440;-65
2021/07/27 02:07:18;;;;;;;0.50;0.20;;;19.80;99.90;;;;;;4937679;29;20205;-68
2021/07/27 02:09:45;;;;;;;0.40;0.20;;;19.70;99.90;;;;;;4937776;29;20490;-64
2021/07/27 02:12:19;;;;;;;0.40;0.20;;;19.80;99.90;;;;;;4937831;29;20177;-69
2021/07/27 02:15:05;;;;;;;0.40;0.20;;;19.80;99.90;;;;;;4938047;29;20456;-68
2021/07/27 02:17:35;;;;;;;0.50;0.40;;;19.90;99.90;;;;;;4937521;29;20473;-69
2021/07/27 02:20:03;;;;;;;0.40;0.20;;;19.80;99.90;;;;;;4937410;29;20484;-68
2021/07/27 02:22:36;;;;;;;0.40;0.20;;;19.80;99.90;;;;;;4937251;29;20468;-68
2021/07/27 02:25:06;;;;;;;0.40;0.20;;;20.00;99.90;;;;;;4920709;29;20781;-69
2021/07/27 02:27:32;;;;;;;0.40;0.20;;;20.00;99.90;;;;;;4937227;29;20460;-69
2021/07/27 02:30:01;;;;;;;0.40;0.20;;;19.90;99.90;;;;;;4936956;29;20424;-69
2021/07/27 02:32:27;;;;;;;0.40;0.20;;;19.80;99.90;;;;;;4937287;29;20897;-65
2021/07/27 02:34:52;;;;;;;0.40;0.20;;;19.80;99.90;;;;;;4937066;29;20497;-65
2021/07/27 02:37:21;;;;;;;0.40;0.20;;;19.80;99.90;;;;;;4936978;29;20212;-68
2021/07/27 02:39:46;;;;;;;0.40;0.20;;;19.80;99.90;;;;;;4937102;29;20181;-65
2021/07/27 02:42:15;;;;;;;0.40;0.20;;;19.80;99.90;;;;;;4937126;29;20459;-63
2021/07/27 02:44:40;;;;;;;0.40;0.20;;;19.80;99.90;;;;;;4937184;29;20401;-68
2021/07/27 02:47:06;;;;;;;0.40;0.20;;;19.70;99.90;;;;;;4936861;29;20433;-67
2021/07/27 02:49:32;;;;;;;0.40;0.20;;;19.60;99.90;;;;;;4936985;29;20176;-69
2021/07/27 02:51:57;;;;;;;0.40;0.20;;;19.50;99.90;;;;;;4936978;29;20189;-66
2021/07/27 02:54:23;;;;;;;0.50;0.40;;;19.50;99.90;;;;;;4937032;29;20189;-66
2021/07/27 02:56:49;;;;;;;0.40;0.20;;;19.40;99.90;;;;;;4936856;29;20390;-68
2021/07/27 02:59:15;;;;;;;0.40;0.20;;;19.40;99.90;;;;;;4936385;29;20452;-68
2021/07/27 03:01:40;;;;;;;0.40;0.20;;;19.40;99.90;;;;;;4936820;29;20504;-66
2021/07/27 03:04:06;;;;;;;0.40;0.20;;;19.40;99.90;;;;;;4936957;29;20271;-66
2021/07/27 03:06:32;;;;;;;0.40;0.10;;;19.50;99.90;;;;;;4936693;29;20197;-65
2021/07/27 03:11:24;;;;;;;0.50;0.37;;;19.50;99.90;;;;;;4936902;29;20177;-67
2021/07/27 03:13:51;;;;;;;0.40;0.20;;;19.50;99.90;;;;;;4936656;29;20932;-67
2021/07/27 03:16:19;;;;;;;0.40;0.20;;;19.50;99.90;;;;;;4936485;29;20433;-63
2021/07/27 03:18:46;;;;;;;0.40;0.20;;;19.50;99.90;;;;;;4936289;29;20480;-67
2021/07/27 03:21:17;;;;;;;0.40;0.20;;;19.60;99.90;;;;;;4936478;29;20461;-63
2021/07/27 03:23:44;;;;;;;0.40;0.20;;;19.60;99.90;;;;;;4920031;29;20436;-63
2021/07/27 03:26:09;;;;;;;0.40;0.20;;;19.70;99.90;;;;;;4936419;29;20440;-65
2021/07/27 03:28:35;;;;;;;0.40;0.30;;;19.70;99.90;;;;;;4936060;29;20460;-66
2021/07/27 03:31:01;;;;;;;0.40;0.20;;;19.60;99.90;;;;;;4936591;29;20299;-63
2021/07/27 03:33:26;;;;;;;0.40;0.20;;;19.60;99.90;;;;;;4936700;29;20226;-63
2021/07/27 03:35:52;;;;;;;0.40;0.20;;;19.60;99.90;;;;;;4937277;29;20188;-65
2021/07/27 03:38:17;;;;;;;0.40;0.20;;;19.50;99.90;;;;;;4936473;29;20614;-67
2021/07/27 03:40:43;;;;;;;0.40;0.20;;;19.50;99.90;;;;;;4919749;29;20185;-67
2021/07/27 03:43:08;;;;;;;0.40;0.20;;;19.50;99.90;;;;;;4939008;29;20510;-67
2021/07/27 03:45:34;;;;;;;0.40;0.20;;;19.70;99.90;;;;;;4940342;29;20256;-64
2021/07/27 03:48:03;;;;;;;0.40;0.20;;;19.70;99.90;;;;;;4940078;29;20303;-67
2021/07/27 03:50:28;;;;;;;0.50;0.30;;;19.90;99.90;;;;;;4940269;29;20271;-68
2021/07/27 03:52:54;;;;;;;0.40;0.20;;;19.80;99.90;;;;;;4940495;29;20499;-65
2021/07/27 03:55:19;;;;;;;0.40;0.20;;;19.70;99.90;;;;;;4940210;29;20659;-68
2021/07/27 03:57:45;;;;;;;0.40;0.20;;;19.80;99.90;;;;;;4923264;29;20697;-67
2021/07/27 04:00:11;;;;;;;0.40;0.20;;;20.00;99.90;;;;;;4940154;29;20192;-68
2021/07/27 04:02:37;;;;;;;0.40;0.20;;;20.00;99.90;;;;;;4939944;29;20213;-65
2021/07/27 04:05:06;;;;;;;1.20;1.20;;;20.20;99.90;;;;;;4939813;29;20605;-69
2021/07/27 04:07:32;;;;;;;1.90;1.43;;;20.20;99.90;;;;;;4939598;29;20661;-68
2021/07/27 04:09:58;;;;;;;0.60;0.60;;;20.30;99.90;;;;;;4939592;29;20429;-68
2021/07/27 04:12:24;;;;;;;0.40;0.20;;;20.20;99.90;;;;;;4939636;29;20606;-64
2021/07/27 04:14:50;;;;;;;0.40;0.20;;;20.50;99.90;;;;;;4939570;29;20494;-63
2021/07/27 04:17:19;;;;;;;0.50;0.37;;;20.70;33.50;;;;;;4939516;29;20618;-64
2021/07/27 04:19:48;;;;;;;0.40;0.20;;;20.80;1.00;;;;;;4939503;29;20646;-63
2021/07/27 04:22:14;;;;;;;0.40;0.20;;;20.90;1.00;;;;;;4922835;29;20440;-69
2021/07/27 04:24:39;;;;;;;0.40;0.20;;;21.10;1.00;;;;;;4922744;29;20443;-68
2021/07/27 04:27:05;;;;;;;0.93;0.57;;;21.60;1.00;;;;;;4939251;29;20185;-67
2021/07/27 04:29:32;;;;;;;0.47;0.20;;;22.20;1.00;;;;;;4939594;29;20606;-65
2021/07/27 04:31:58;;;;;;;0.40;0.20;;;22.70;99.90;;;;;;4939298;29;20189;-66
2021/07/27 04:34:26;;;;;;;0.40;0.20;;;22.90;1.00;;;;;;4939172;29;20920;-69
2021/07/27 04:36:52;;;;;;;0.40;0.20;;;22.90;1.00;;;;;;4939158;29;20206;-70
2021/07/27 04:39:17;;;;;;;0.40;0.20;;;23.20;1.00;;;;;;4939030;29;20520;-65
2021/07/27 04:41:43;;;;;;;0.40;0.20;;;23.30;99.90;;;;;;4939235;29;20195;-63
2021/07/27 04:44:09;;;;;;;0.40;0.20;;;23.30;99.90;;;;;;4939290;29;20252;-64
2021/07/27 04:46:35;;;;;;;0.50;0.20;;;23.00;1.00;;;;;;4938906;29;20185;-64
2021/07/27 04:49:01;;;;;;;2.50;2.30;;;23.40;1.00;;;;;;4938858;29;20208;-64
2021/07/27 04:51:28;;;;;;;0.40;0.20;;;24.80;57.20;;;;;;4939106;29;20547;-64
2021/07/27 04:53:58;;;;;;;0.50;0.20;;;25.20;99.90;;;;;;4938884;29;20173;-64
2021/07/27 04:56:24;;;;;;;0.50;0.20;;;25.10;99.90;;;;;;4939067;29;20417;-64
2021/07/27 04:58:50;;;;;;;0.40;0.20;;;24.50;1.00;;;;;;4938517;29;20433;-63
2021/07/27 05:01:15;;;;;;;0.50;0.30;;;23.50;99.90;;;;;;4939184;29;20421;-63
2021/07/27 05:03:41;;;;;;;0.40;0.20;;;23.20;99.90;;;;;;4938966;29;20181;-63
2021/07/27 05:06:10;;;;;;;0.40;0.20;;;22.70;10.50;;;;;;4938796;29;20212;-63
2021/07/27 05:08:35;;;;;;;0.40;0.20;;;22.60;99.90;;;;;;4938818;29;20282;-63
2021/07/27 05:11:02;;;;;;;0.50;0.23;;;22.40;99.90;;;;;;4939182;29;20432;-63
2021/07/27 05:13:29;;;;;;;0.40;0.20;;;22.40;99.90;;;;;;4939089;29;20213;-63
2021/07/27 05:15:55;;;;;;;0.73;0.50;;;22.30;99.90;;;;;;4959717;28;20526;-63
2021/07/27 05:18:20;;;;;;;0.50;0.43;;;22.20;99.90;;;;;;4960096;28;20468;-63
2021/07/27 05:20:47;;;;;;;0.50;0.20;;;22.20;1.00;;;;;;4948079;28;20440;-63
2021/07/27 05:23:13;;;;;;;0.40;0.20;;;22.20;1.00;;;;;;4954962;28;20184;-63
2021/07/27 05:25:39;;;;;;;0.40;0.20;;;22.30;99.90;;;;;;4977002;28;20427;-63
2021/07/27 05:28:08;;;;;;;0.40;0.20;;;22.50;99.90;;;;;;4959359;28;20274;-63
2021/07/27 05:30:34;;;;;;;0.50;0.30;;;22.50;99.90;;;;;;4957313;29;20428;-63
2021/07/27 05:33:02;;;;;;;0.50;0.30;;;22.70;99.90;;;;;;4971524;28;20442;-63
2021/07/27 05:35:27;;;;;;;0.40;0.20;;;22.80;99.90;;;;;;4968643;28;20435;-63
2021/07/27 05:37:53;;;;;;;1.27;0.77;;;23.00;99.90;;;;;;4957339;29;20436;-63
2021/07/27 05:40:19;;;;;;;0.40;0.10;;;23.50;1.00;;;;;;4957090;29;20188;-63
2021/07/27 05:42:44;;;;;;;0.53;0.47;;;23.60;1.00;;;;;;4957211;29;20340;-63
2021/07/27 05:45:10;;;;;;;0.40;0.20;;;23.70;99.90;;;;;;4957233;29;20235;-64
2021/07/27 05:47:36;;;;;;;0.40;0.20;;;23.60;1.00;;;;;;4956632;29;20234;-63
2021/07/27 05:50:01;;;;;;;0.97;0.40;;;24.00;99.90;;;;;;4970776;28;20250;-63
2021/07/27 05:52:27;;;;;;;0.50;0.27;;;25.20;1.00;;;;;;4968727;28;20535;-63
2021/07/27 05:54:52;;;;;;;0.40;0.20;;;27.00;10.50;;;;;;4956981;29;20189;-63
2021/07/27 05:57:18;;;;;;;0.40;0.20;;;28.10;99.90;;;;;;4957066;29;20275;-63
2021/07/27 05:59:43;;;;;;;0.50;0.20;;;28.00;99.90;;;;;;4957027;29;20192;-64
2021/07/27 06:02:11;;;;;;;0.40;0.20;;;28.80;99.90;;;;;;4957413;29;20258;-65
2021/07/27 06:04:37;;;;;;;0.40;0.20;;;29.80;1.00;;;;;;4956111;28;20188;-66
2021/07/27 06:07:03;;;;;;;0.40;0.20;;;29.90;1.00;;;;;;4939651;29;20982;-67
2021/07/27 06:09:29;;;;;;;1.80;0.70;;;30.00;1.00;;;;;;4956772;29;20179;-64
2021/07/27 06:11:54;;;;;;;1.00;0.80;;;30.20;1.00;;;;;;4956850;29;20893;-65
2021/07/27 06:14:20;;;;;;;0.50;0.20;;;31.10;1.00;;;;;;4956664;29;20614;-65
2021/07/27 06:16:45;;;;;;;1.33;1.23;;;31.90;1.00;;;;;;4956655;29;20191;-64
2021/07/27 06:19:11;;;;;;;0.40;0.20;;;32.20;1.00;;;;;;4956642;29;20195;-64
2021/07/27 06:21:38;;;;;;;0.40;0.20;;;32.10;1.00;;;;;;4956487;29;20180;-64
2021/07/27 06:24:08;;;;;;;0.50;0.20;;;32.50;1.00;;;;;;4969439;28;20186;-64
2021/07/27 06:26:35;;;;;;;0.77;0.70;;;31.80;1.00;;;;;;4968381;28;20439;-64
2021/07/27 06:29:02;;;;;;;0.40;0.20;;;31.50;1.00;;;;;;4956194;29;20482;-64
2021/07/27 06:31:28;;;;;;;0.50;0.30;;;31.50;1.00;;;;;;4956906;29;20428;-64
2021/07/27 06:33:53;;;;;;;0.50;0.20;;;32.10;1.00;;;;;;4956469;29;20765;-64
2021/07/27 06:36:19;;;;;;;1.07;0.97;;;32.20;1.00;;;;;;4956235;29;20212;-64
2021/07/27 06:38:45;;;;;;;1.73;1.13;;;32.70;1.00;;;;;;4955846;29;20551;-65
2021/07/27 06:41:11;;;;;;;1.33;1.07;;;32.60;1.00;;;;;;4959451;28;20180;-65
2021/07/27 06:43:38;;;;;;;0.50;0.20;;;32.60;1.00;;;;;;4969732;28;20541;-64
2021/07/27 06:46:05;;;;;;;0.40;0.13;;;31.00;1.00;;;;;;4959165;28;20435;-67
2021/07/27 06:48:31;;;;;;;0.40;0.20;;;31.80;1.00;;;;;;4958295;28;20473;-67
2021/07/27 06:50:56;;;;;;;1.10;0.63;;;32.90;1.00;;;;;;4976136;28;20419;-67
2021/07/27 06:53:26;;;;;;;0.60;0.40;;;32.80;1.00;;;;;;4949873;29;20289;-67
2021/07/27 06:55:51;;;;;;;0.50;0.40;;;32.60;1.00;;;;;;4955635;29;20633;-67
2021/07/27 06:58:18;;;;;;;0.40;0.20;;;33.90;1.00;;;;;;4967555;28;20533;-70
2021/07/27 07:00:44;;;;;;;0.40;0.10;;;33.00;1.00;;;;;;4975228;28;20249;-71
2021/07/27 07:03:12;;;;;;;0.40;0.10;;;32.40;1.00;;;;;;4975298;28;20439;-69
2021/07/27 07:05:42;;;;;;;0.50;0.20;;;33.10;1.00;;;;;;4975373;28;20240;-69
2021/07/27 07:08:11;;;;;;;2.53;2.23;;;33.70;1.00;;;;;;4957909;28;20497;-68
2021/07/27 07:10:45;;;;;;;0.73;0.73;;;32.90;1.00;;;;;;4974511;28;20767;-68
2021/07/27 07:13:17;;;;;;;0.47;0.20;;;33.30;1.00;;;;;;4975125;28;20768;-67
2021/07/27 07:15:42;;;;;;;0.50;0.30;;;33.40;1.00;;;;;;4942786;28;20733;-68
2021/07/27 07:18:08;;;;;;;1.33;0.83;;;33.20;1.00;;;;;;4954846;29;20428;-67
2021/07/27 07:20:33;;;;;;;0.50;0.20;;;33.50;1.00;;;;;;4955357;29;20199;-69
2021/07/27 07:22:59;;;;;;;2.07;0.63;;;32.00;1.00;;;;;;4955137;29;20629;-67
2021/07/27 07:25:25;;;;;;;0.50;0.20;;;31.90;1.00;;;;;;4938732;29;20251;-69
2021/07/27 07:27:50;;;;;;;0.60;0.30;;;31.80;1.00;;;;;;4955554;29;20212;-67
2021/07/27 07:30:16;;;;;;;0.60;0.40;;;33.10;1.00;;;;;;4955374;28;20208;-68
2021/07/27 07:32:41;;;;;;;0.50;0.23;;;33.10;1.00;;;;;;4955444;29;20180;-68
2021/07/27 07:35:07;;;;;;;0.73;0.23;;;32.40;1.00;;;;;;4955499;29;20181;-68
2021/07/27 07:37:33;;;;;;;0.50;0.17;;;30.70;1.00;;;;;;4954949;29;20188;-69
2021/07/27 07:39:58;;;;;;;0.80;0.80;;;28.90;1.00;;;;;;4938688;29;20184;-70
2021/07/27 07:42:24;;;;;;;0.50;0.30;;;27.50;99.90;;;;;;4938728;29;20172;-69
2021/07/27 07:44:49;;;;;;;0.83;0.50;;;27.00;1.00;;;;;;4955381;29;20660;-67
2021/07/27 07:47:15;;;;;;;0.50;0.20;;;26.90;1.00;;;;;;4955127;29;20188;-67
2021/07/27 07:49:40;;;;;;;1.20;1.00;;;26.90;1.00;;;;;;4968513;28;20222;-62
2021/07/27 07:52:06;;;;;;;0.50;0.17;;;26.10;99.90;;;;;;4974884;28;20274;-63
2021/07/27 07:54:33;;;;;;;0.50;0.17;;;25.40;1.00;;;;;;4974670;28;20183;-65
2021/07/27 07:56:59;;;;;;;1.80;0.73;;;25.30;1.00;;;;;;4974334;28;20217;-64
2021/07/27 07:59:25;;;;;;;1.13;0.57;;;25.30;1.00;;;;;;4974352;28;20458;-66
2021/07/27 08:01:55;;;;;;;0.50;0.30;;;25.10;1.00;;;;;;4957276;28;20179;-65
2021/07/27 08:04:21;;;;;;;1.80;0.90;;;25.70;99.90;;;;;;4974375;28;20198;-66
2021/07/27 08:06:47;;;;;;;0.50;0.20;;;25.70;1.00;;;;;;4974231;28;20461;-64
2021/07/27 08:09:12;;;;;;;0.77;0.73;;;26.20;99.90;;;;;;4957036;28;20806;-64
2021/07/27 08:11:41;;;;;;;0.50;0.30;;;25.90;99.90;;;;;;4955877;28;20208;-64
2021/07/27 08:14:06;;;;;;;1.43;1.33;;;25.60;1.00;;;;;;4939819;29;20574;-65
2021/07/27 08:16:32;;;;;;;0.50;0.30;;;25.30;99.90;;;;;;4953637;29;20431;-65
2021/07/27 08:19:00;;;;;;;0.50;0.20;;;25.50;99.90;;;;;;4951859;29;20187;-65
2021/07/27 08:21:26;;;;;;;0.50;0.20;;;25.80;1.00;;;;;;4936153;29;20184;-64
2021/07/27 08:23:51;;;;;;;0.53;0.30;;;26.30;99.90;;;;;;4958978;28;20779;-64
2021/07/27 08:26:17;;;;;;;2.20;1.83;;;26.80;1.00;;;;;;4969100;28;20643;-65
2021/07/27 08:28:45;;;;;;;0.60;0.30;;;27.00;1.00;;;;;;4944002;28;20201;-64
2021/07/27 08:31:10;;;;;;;3.23;0.40;;;27.00;1.00;;;;;;4939188;29;20173;-64
2021/07/27 08:33:36;;;;;;;0.50;0.20;;;26.60;1.00;;;;;;4939340;29;20436;-64
2021/07/27 08:36:02;;;;;;;0.50;0.20;;;26.30;1.00;;;;;;4939087;29;20258;-65
2021/07/27 08:38:28;;;;;;;1.13;1.00;;;26.30;99.90;;;;;;4938548;29;20236;-65
2021/07/27 08:40:58;;;;;;;0.50;0.20;;;26.00;99.90;;;;;;4939124;29;20566;-64
2021/07/27 08:43:24;;;;;;;0.50;0.30;;;25.60;59.70;;;;;;4939133;29;20232;-63
2021/07/27 08:45:51;;;;;;;1.40;1.30;;;25.40;99.90;;;;;;4952165;29;20463;-65
2021/07/27 08:48:17;;;;;;;1.00;0.60;;;25.20;1.00;;;;;;4957967;29;20518;-64
2021/07/27 08:50:44;;;;;;;1.03;0.93;;;25.70;1.00;;;;;;4958003;29;20428;-64
2021/07/27 08:53:10;;;;;;;1.50;1.40;;;25.30;33.10;;;;;;4958150;29;20443;-64
2021/07/27 08:55:36;;;;;;;1.23;1.13;;;24.70;1.00;;;;;;4957787;29;20432;-65
2021/07/27 08:58:02;;;;;;;0.50;0.20;;;24.70;99.90;;;;;;4957883;29;20440;-63
2021/07/27 09:00:29;;;;;;;0.53;0.40;;;25.20;99.90;;;;;;4957800;29;20255;-66
2021/07/27 09:03:09;;;;;;;0.50;0.20;;;25.60;99.90;;;;;;4958012;29;20184;-66
2021/07/27 09:05:36;;;;;;;0.50;0.20;;;25.20;1.00;;;;;;4957687;29;20451;-66
2021/07/27 09:08:02;;;;;;;0.50;0.23;;;25.10;99.90;;;;;;4957801;29;20850;-66
2021/07/27 09:10:29;;;;;;;1.30;1.20;;;25.40;99.90;;;;;;4941008;29;20448;-64
2021/07/27 09:13:00;;;;;;;0.60;0.30;;;24.80;99.90;;;;;;4957664;29;20432;-65
2021/07/27 09:15:28;;;;;;;0.63;0.50;;;24.60;99.90;;;;;;4957536;29;20538;-65
2021/07/27 09:17:58;;;;;;;0.50;0.20;;;24.70;1.00;;;;;;4957690;29;20518;-64
2021/07/27 09:20:29;;;;;;;0.87;0.23;;;24.80;99.90;;;;;;4951909;28;20449;-66
2021/07/27 09:22:54;;;;;;;0.70;0.30;;;24.50;99.90;;;;;;4957205;29;20552;-64
2021/07/27 09:25:25;;;;;;;0.50;0.20;;;24.20;1.00;;;;;;4957470;29;20468;-63
2021/07/27 09:28:10;;;;;;;0.50;0.20;;;24.70;99.90;;;;;;4957156;29;20244;-65
2021/07/27 09:30:37;;;;;;;0.50;0.10;;;25.60;99.90;;;;;;4957314;29;20704;-65
2021/07/27 09:33:05;;;;;;;0.50;0.20;;;26.00;1.00;;;;;;4957441;29;20888;-64
2021/07/27 09:35:30;;;;;;;0.50;0.30;;;26.00;1.00;;;;;;4957227;29;20432;-64
2021/07/27 09:38:02;;;;;;;0.53;0.33;;;25.70;53.70;;;;;;4957248;29;20491;-64
2021/07/27 09:40:28;;;;;;;0.70;0.50;;;25.30;1.00;;;;;;4956264;28;20431;-64
2021/07/27 09:42:53;;;;;;;0.60;0.30;;;25.10;1.00;;;;;;4956952;29;20486;-67
2021/07/27 09:45:19;;;;;;;0.50;0.20;;;25.00;99.90;;;;;;4956993;29;20188;-67
2021/07/27 09:47:48;;;;;;;0.50;0.30;;;25.20;1.00;;;;;;4956980;28;20298;-67
2021/07/27 09:50:15;;;;;;;0.50;0.20;;;25.30;99.90;;;;;;4974585;28;20483;-66
2021/07/27 09:52:43;;;;;;;1.13;0.70;;;25.60;99.90;;;;;;4976350;28;20434;-72
2021/07/27 09:55:10;;;;;;;0.40;0.20;;;26.10;1.00;;;;;;4976422;28;20426;-65
2021/07/27 09:57:37;;;;;;;1.90;0.53;;;26.40;1.00;;;;;;4959119;28;21050;-66
2021/07/27 10:00:03;;;;;;;2.77;1.27;;;26.00;99.90;;;;;;4959012;28;20686;-65
2021/07/27 10:02:32;;;;;;;0.87;0.70;;;25.80;94.90;;;;;;4976329;28;20899;-67
2021/07/27 10:04:58;;;;;;;1.83;1.37;;;25.80;99.90;;;;;;4976110;28;20463;-64
2021/07/27 10:07:30;;;;;;;3.53;1.73;;;26.00;99.90;;;;;;4976110;28;20450;-67
2021/07/27 10:10:06;;;;;;;3.70;0.27;;;25.40;81.10;;;;;;4976199;28;20438;-68
2021/07/27 10:12:35;;;;;;;0.50;0.20;;;25.40;4.00;;;;;;4975846;28;20484;-64
2021/07/27 10:15:16;;;;;;;2.60;2.50;;;25.80;1.00;;;;;;4958867;28;20971;-67
2021/07/27 10:17:54;;;;;;;0.60;0.47;;;26.10;99.90;;;;;;4958867;28;20453;-67
2021/07/27 10:20:22;;;;;;;0.70;0.50;;;26.50;99.90;;;;;;4943253;29;20510;-71
2021/07/27 10:22:48;;;;;;;0.50;0.20;;;26.20;1.00;;;;;;4942834;28;20931;-63
2021/07/27 10:25:14;;;;;;;2.93;2.40;;;26.40;99.90;;;;;;4975317;28;20447;-65
2021/07/27 10:27:52;;;;;;;1.13;0.40;;;26.60;99.90;;;;;;4959628;28;20318;-64
2021/07/27 10:30:30;;;;;;;0.50;0.20;;;26.40;99.90;;;;;;4956379;28;20442;-64
2021/07/27 10:32:56;;;;;;;0.80;0.63;;;26.50;99.90;;;;;;4941721;28;20432;-63
2021/07/27 10:35:29;;;;;;;1.03;0.93;;;26.20;1.00;;;;;;4962100;28;20430;-64
2021/07/27 10:38:08;;;;;;;3.07;1.43;;;26.50;99.90;;;;;;4975216;28;20192;-64
2021/07/27 10:40:33;;;;;;;0.87;0.63;;;26.10;1.00;;;;;;4967786;28;20439;-64
2021/07/27 10:42:59;;;;;;;1.13;1.03;;;25.70;31.30;;;;;;4955940;29;20443;-65
2021/07/27 10:45:26;;;;;;;3.23;1.40;;;25.90;1.00;;;;;;4956010;29;20251;-65
2021/07/27 10:47:54;;;;;;;0.87;0.70;;;26.50;1.00;;;;;;4955861;29;20279;-66
2021/07/27 10:50:27;;;;;;;1.17;0.70;;;26.60;99.90;;;;;;4974654;28;20494;-70
2021/07/27 10:53:07;;;;;;;1.13;0.30;;;26.50;99.90;;;;;;4975185;28;20435;-68
2021/07/27 10:55:36;;;;;;;0.50;0.20;;;25.60;1.00;;;;;;4975209;28;20442;-70
2021/07/27 10:58:04;;;;;;;1.63;0.67;;;26.00;4.80;;;;;;4974864;28;20442;-66
2021/07/27 11:00:34;;;;;;;0.60;0.43;;;26.40;1.00;;;;;;4975670;28;20422;-70
2021/07/27 11:03:00;;;;;;;0.60;0.43;;;27.00;99.90;;;;;;4958403;28;20485;-69
2021/07/27 11:05:27;;;;;;;0.60;0.53;;;26.90;99.90;;;;;;4975243;28;20525;-69
2021/07/27 11:07:53;;;;;;;0.53;0.33;;;26.80;99.90;;;;;;4974781;28;20869;-68
2021/07/27 11:10:25;;;;;;;3.10;2.90;;;27.10;99.90;;;;;;4974621;28;20454;-69
2021/07/27 11:12:51;;;;;;;1.00;0.87;;;26.80;99.90;;;;;;4974831;28;20469;-68
2021/07/27 11:15:23;;;;;;;0.50;0.10;;;27.10;99.90;;;;;;4974823;28;20446;-69
2021/07/27 11:17:52;;;;;;;5.57;1.97;;;27.50;99.90;;;;;;4967671;28;20436;-68
2021/07/27 11:20:32;;;;;;;1.30;1.07;;;27.30;99.90;;;;;;4955480;29;20444;-67
2021/07/27 11:23:00;;;;;;;4.77;1.47;;;26.80;99.90;;;;;;4960240;28;20804;-68
2021/07/27 11:25:28;;;;;;;1.17;1.07;;;26.30;1.00;;;;;;4974896;28;20498;-68
2021/07/27 11:27:54;;;;;;;0.60;0.40;;;26.60;1.00;;;;;;4974771;28;20793;-68
2021/07/27 11:30:33;;;;;;;0.93;0.77;;;26.90;99.90;;;;;;4974273;28;20430;-69
2021/07/27 11:33:14;;;;;;;1.53;1.17;;;26.90;99.90;;;;;;4958434;28;20504;-69
2021/07/27 11:35:51;;;;;;;1.10;1.07;;;26.80;99.90;;;;;;4957552;28;20442;-70
2021/07/27 11:38:33;;;;;;;1.63;1.50;;;27.10;99.90;;;;;;4974600;28;20876;-69
2021/07/27 11:41:07;;;;;;;1.20;0.93;;;26.50;99.90;;;;;;4975050;28;20896;-66
2021/07/27 11:43:37;;;;;;;0.50;0.10;;;26.50;99.90;;;;;;4974656;28;20473;-65
2021/07/27 11:46:06;;;;;;;1.30;0.60;;;26.60;99.90;;;;;;4955739;28;20442;-67
2021/07/27 11:48:34;;;;;;;1.33;0.90;;;26.80;99.90;;;;;;4959386;28;20995;-64
2021/07/27 11:50:59;;;;;;;0.90;0.90;;;26.60;99.90;;;;;;4975000;28;20434;-70
2021/07/27 11:53:25;;;;;;;0.50;0.20;;;26.90;99.90;;;;;;4961824;28;20436;-67
2021/07/27 11:55:51;;;;;;;0.60;0.40;;;27.40;99.90;;;;;;4955569;29;20177;-63
2021/07/27 11:58:28;;;;;;;0.60;0.50;;;27.00;99.90;;;;;;4955270;29;20188;-64
2021/07/27 12:00:58;;;;;;;1.37;0.57;;;26.20;99.90;;;;;;4955569;29;20586;-64
2021/07/27 12:03:24;;;;;;;0.50;0.20;;;25.70;1.00;;;;;;4956692;28;20436;-64
2021/07/27 12:05:50;;;;;;;1.57;1.47;;;25.60;99.90;;;;;;4958994;29;20459;-64
2021/07/27 12:08:16;;;;;;;3.03;1.60;;;25.90;1.00;;;;;;4958697;29;20474;-64
2021/07/27 12:10:42;;;;;;;0.70;0.63;;;26.40;1.00;;;;;;4959008;29;20427;-64
2021/07/27 12:13:07;;;;;;;1.33;1.23;;;26.70;99.90;;;;;;4958760;29;20193;-65
2021/07/27 12:15:33;;;;;;;0.50;0.30;;;27.10;99.90;;;;;;4941982;29;20188;-63
2021/07/27 12:17:58;;;;;;;0.50;0.30;;;26.90;99.90;;;;;;4958818;29;20192;-63
2021/07/27 12:20:24;;;;;;;0.50;0.20;;;27.30;99.90;;;;;;4958643;29;20192;-65
2021/07/27 12:22:50;;;;;;;0.70;0.67;;;27.80;43.50;;;;;;4962380;28;20195;-63
2021/07/27 12:25:15;;;;;;;0.90;0.67;;;27.60;25.00;;;;;;4961414;28;20215;-63
2021/07/27 12:27:42;;;;;;;0.80;0.43;;;27.30;57.00;;;;;;4961681;28;20596;-63
2021/07/27 12:30:08;;;;;;;0.60;0.60;;;27.40;76.80;;;;;;4958590;29;20176;-64
2021/07/27 12:32:34;;;;;;;1.10;0.93;;;28.00;1.00;;;;;;4941552;29;20431;-63
2021/07/27 12:34:59;;;;;;;0.70;0.60;;;28.40;1.00;;;;;;4958654;29;20501;-64
2021/07/27 12:37:25;;;;;;;1.53;1.40;;;28.00;1.00;;;;;;4958341;29;20428;-63
2021/07/27 12:39:51;;;;;;;0.90;0.70;;;28.20;1.00;;;;;;4958233;29;20567;-64
2021/07/27 12:42:16;;;;;;;0.60;0.50;;;27.30;1.00;;;;;;4941401;29;20342;-63
2021/07/27 12:44:42;;;;;;;0.50;0.20;;;27.30;1.00;;;;;;4958609;29;20573;-64
2021/07/27 12:47:08;;;;;;;11.33;3.03;;;27.50;1.00;;;;;;4958179;29;20200;-65
2021/07/27 12:49:34;;;;;;;5.60;2.00;;;27.50;1.00;;;;;;4957760;29;20668;-64
2021/07/27 12:52:00;;;;;;;0.80;0.50;;;27.80;1.00;;;;;;4966304;28;20435;-68
2021/07/27 12:54:26;;;;;;;0.47;0.20;;;28.20;1.00;;;;;;4977552;28;20438;-67
2021/07/27 12:56:52;;;;;;;1.03;1.03;;;28.20;1.00;;;;;;4977748;28;20430;-67
2021/07/27 12:59:17;;;;;;;0.60;0.40;;;28.40;1.00;;;;;;4960894;28;20534;-69
2021/07/27 13:01:43;;;;;;;0.60;0.43;;;28.20;1.00;;;;;;4978147;28;20201;-69
2021/07/27 13:04:09;;;;;;;1.50;1.20;;;28.10;1.00;;;;;;4960466;28;20525;-68
2021/07/27 13:06:35;;;;;;;0.70;0.60;;;28.00;1.00;;;;;;4977198;28;20203;-68
2021/07/27 13:09:02;;;;;;;0.50;0.20;;;27.90;1.00;;;;;;4977352;28;20211;-69
2021/07/27 13:11:28;;;;;;;0.60;0.47;;;27.80;1.00;;;;;;4977515;28;20510;-65
2021/07/27 13:13:53;;;;;;;1.80;1.70;;;27.80;1.00;;;;;;4976833;28;20846;-65